createdAt,value
2019-06-18T00:02:13.395Z,3.27
2019-06-18T00:04:43.699Z,3.33
2019-06-18T00:07:14.184Z,3.10
2019-06-18T00:09:44.936Z,2.87
2019-06-18T00:12:15.457Z,3.67
2019-06-18T00:14:46.019Z,3.13
2019-06-18T00:17:16.451Z,3.00
2019-06-18T00:19:50.587Z,3.00
2019-06-18T00:22:21.647Z,3.60
2019-06-18T00:24:52.256Z,3.70
2019-06-18T00:27:22.479Z,3.10
2019-06-18T00:29:53.110Z,2.90
2019-06-18T00:32:23.700Z,3.73
2019-06-18T00:34:54.195Z,3.70
2019-06-18T00:37:24.373Z,3.50
2019-06-18T00:39:55.026Z,3.20
2019-06-18T00:42:27.339Z,3.37
2019-06-18T00:44:57.863Z,3.33
2019-06-18T00:47:28.304Z,3.80
2019-06-18T00:49:59.955Z,3.20
2019-06-18T00:52:30.743Z,3.77
2019-06-18T00:55:03.305Z,3.83
2019-06-18T00:57:33.607Z,4.93
2019-06-18T01:00:07.127Z,4.53
2019-06-18T01:02:38.363Z,3.37
2019-06-18T01:05:11.012Z,3.53
2019-06-18T01:07:41.549Z,4.50
2019-06-18T01:10:12.414Z,4.33
2019-06-18T01:12:42.818Z,3.60
2019-06-18T01:15:17.193Z,3.80
2019-06-18T01:17:47.520Z,4.17
2019-06-18T01:20:19.093Z,4.70
2019-06-18T01:23:08.593Z,4.03
2019-06-18T01:25:39.364Z,4.00
2019-06-18T01:28:12.973Z,3.80
2019-06-18T01:30:43.490Z,4.10
2019-06-18T01:33:15.779Z,4.23
2019-06-18T01:35:46.020Z,4.60
2019-06-18T01:38:17.215Z,4.30
2019-06-18T01:40:47.593Z,4.87
2019-06-18T01:43:17.916Z,4.40
2019-06-18T01:45:48.347Z,4.10
2019-06-18T01:48:18.893Z,4.60
2019-06-18T01:50:49.179Z,4.60
2019-06-18T01:53:22.493Z,4.60
2019-06-18T01:55:54.355Z,4.70
2019-06-18T01:58:25.094Z,4.40
2019-06-18T02:00:56.787Z,4.73
2019-06-18T02:03:27.585Z,5.47
2019-06-18T02:05:59.408Z,5.33
2019-06-18T02:08:33.171Z,5.20
2019-06-18T02:11:03.699Z,5.37
2019-06-18T02:13:35.708Z,5.13
2019-06-18T02:16:08.876Z,4.97
2019-06-18T02:18:43.187Z,6.20
2019-06-18T02:21:14.195Z,6.00
2019-06-18T02:23:46.082Z,5.43
2019-06-18T02:26:16.903Z,5.50
2019-06-18T02:28:48.431Z,5.40
2019-06-18T02:31:18.861Z,5.53
2019-06-18T02:33:54.379Z,5.50
2019-06-18T02:36:24.723Z,6.37
2019-06-18T02:38:56.798Z,5.97
2019-06-18T02:41:27.789Z,6.27
2019-06-18T02:44:02.417Z,6.63
2019-06-18T02:46:33.014Z,6.50
2019-06-18T02:49:05.138Z,6.87
2019-06-18T02:51:37.308Z,7.03
2019-06-18T02:54:07.881Z,7.20
2019-06-18T02:56:38.697Z,6.30
2019-06-18T02:59:12.953Z,7.00
2019-06-18T03:01:45.936Z,7.30
2019-06-18T03:04:16.555Z,7.07
2019-06-18T03:06:47.596Z,7.20
2019-06-18T03:09:19.086Z,6.70
2019-06-18T03:11:53.430Z,7.30
2019-06-18T03:14:24.336Z,9.33
2019-06-18T03:16:54.685Z,7.37
2019-06-18T03:19:25.454Z,7.17
2019-06-18T03:21:59.781Z,6.80
2019-06-18T03:24:30.256Z,7.50
2019-06-18T03:27:02.848Z,7.20
2019-06-18T03:29:34.681Z,7.00
2019-06-18T03:32:06.015Z,7.33
2019-06-18T03:34:38.070Z,7.10
2019-06-18T03:37:08.390Z,7.53
2019-06-18T03:39:43.329Z,7.30
2019-06-18T03:42:13.953Z,7.50
2019-06-18T03:44:44.249Z,6.87
2019-06-18T03:47:15.800Z,7.20
2019-06-18T03:49:46.060Z,7.30
2019-06-18T03:52:16.301Z,6.70
2019-06-18T03:54:48.089Z,6.77
2019-06-18T03:57:18.759Z,6.60
2019-06-18T03:59:49.125Z,6.97
2019-06-18T04:02:19.385Z,6.07
2019-06-18T04:04:52.800Z,6.10
2019-06-18T04:07:22.526Z,6.57
2019-06-18T04:09:53.188Z,7.30
2019-06-18T04:12:24.743Z,6.40
2019-06-18T04:14:54.859Z,6.17
2019-06-18T04:17:24.837Z,6.87
2019-06-18T04:19:55.290Z,6.67
2019-06-18T04:22:25.545Z,6.30
2019-06-18T04:24:55.367Z,6.47
2019-06-18T04:27:25.383Z,6.03
2019-06-18T04:29:55.425Z,6.70
2019-06-18T04:32:26.097Z,7.10
2019-06-18T04:34:56.744Z,6.77
2019-06-18T04:37:26.917Z,6.87
2019-06-18T04:39:57.341Z,7.90
2019-06-18T04:42:27.611Z,8.20
2019-06-18T04:44:57.735Z,7.47
2019-06-18T04:47:27.574Z,6.00
2019-06-18T04:49:57.241Z,6.93
2019-06-18T04:52:27.063Z,6.97
2019-06-18T04:54:58.159Z,7.07
2019-06-18T04:57:28.600Z,7.33
2019-06-18T04:59:58.229Z,7.53
2019-06-18T05:02:29.041Z,8.90
2019-06-18T05:04:59.537Z,7.33
2019-06-18T05:07:32.663Z,8.40
2019-06-18T05:10:03.465Z,7.63
2019-06-18T05:12:38.729Z,7.57
2019-06-18T05:15:10.225Z,7.10
2019-06-18T05:17:43.038Z,7.60
2019-06-18T05:20:14.018Z,7.30
2019-06-18T05:22:44.168Z,8.10
2019-06-18T05:25:14.472Z,8.47
2019-06-18T05:28:03.077Z,7.03
2019-06-18T05:30:33.245Z,7.63
2019-06-18T05:33:03.705Z,7.90
2019-06-18T05:35:34.776Z,7.70
2019-06-18T05:38:07.942Z,7.47
2019-06-18T05:40:42.660Z,8.93
2019-06-18T05:43:13.816Z,8.13
2019-06-18T05:45:44.844Z,8.07
2019-06-18T05:48:15.179Z,8.33
2019-06-18T05:50:53.537Z,7.90
2019-06-18T05:53:24.756Z,8.20
2019-06-18T05:55:55.599Z,8.03
2019-06-18T05:58:26.092Z,8.53
2019-06-18T06:03:46.548Z,7.90
2019-06-18T06:06:22.317Z,8.93
2019-06-18T06:08:53.244Z,8.40
2019-06-18T06:11:23.805Z,9.50
2019-06-18T06:13:53.898Z,10.37
2019-06-18T06:16:24.586Z,8.03
2019-06-18T06:19:10.523Z,9.10
2019-06-18T06:21:27.740Z,8.37
2019-06-18T06:23:58.837Z,9.10
2019-06-18T06:26:38.562Z,8.50
2019-06-18T06:29:04.336Z,8.90
2019-06-18T06:31:35.135Z,9.43
2019-06-18T06:34:04.821Z,11.47
2019-06-18T06:36:34.852Z,9.03
2019-06-18T06:39:06.476Z,8.70
2019-06-18T06:41:36.274Z,9.70
2019-06-18T06:44:07.063Z,9.23
2019-06-18T06:46:39.183Z,10.07
2019-06-18T06:49:08.884Z,8.77
2019-06-18T06:51:39.032Z,9.17
2019-06-18T06:54:12.609Z,9.23
2019-06-18T06:56:40.237Z,9.87
2019-06-18T06:59:13.036Z,8.60
2019-06-18T07:01:43.334Z,9.00
2019-06-18T07:04:14.832Z,9.10
2019-06-18T07:06:44.632Z,8.30
2019-06-18T07:09:16.548Z,9.50
2019-06-18T07:11:45.972Z,9.50
2019-06-18T07:14:17.247Z,9.47
2019-06-18T07:16:46.688Z,9.33
2019-06-18T07:19:16.606Z,10.73
2019-06-18T07:21:46.573Z,8.63
2019-06-18T07:24:16.576Z,8.60
2019-06-18T07:26:46.182Z,9.00
2019-06-18T07:29:16.182Z,8.13
2019-06-18T07:31:45.830Z,9.00
2019-06-18T07:34:15.113Z,8.47
2019-06-18T07:36:45.071Z,9.40
2019-06-18T07:39:15.102Z,7.63
2019-06-18T07:41:44.615Z,8.20
2019-06-18T07:44:14.162Z,7.60
2019-06-18T07:46:47.436Z,7.77
2019-06-18T07:49:18.472Z,8.20
2019-06-18T07:51:48.607Z,7.37
2019-06-18T07:54:18.355Z,8.37
2019-06-18T07:56:47.724Z,8.20
2019-06-18T07:59:17.720Z,8.20
2019-06-18T08:01:47.160Z,8.43
2019-06-18T08:04:16.855Z,7.90
2019-06-18T08:06:47.141Z,7.73
2019-06-18T08:09:16.955Z,7.40
2019-06-18T08:11:46.615Z,8.20
2019-06-18T08:14:19.019Z,8.50
2019-06-18T08:16:48.337Z,7.30
2019-06-18T08:19:17.866Z,8.07
2019-06-18T08:21:47.990Z,8.10
2019-06-18T08:24:18.150Z,9.27
2019-06-18T08:26:48.668Z,7.80
2019-06-18T08:29:18.656Z,9.13
2019-06-18T08:31:57.005Z,7.30
2019-06-18T08:34:22.280Z,8.10
2019-06-18T08:36:52.992Z,7.73
2019-06-18T08:39:22.879Z,7.70
2019-06-18T08:41:52.835Z,8.00
2019-06-18T08:44:22.647Z,9.07
2019-06-18T08:46:52.675Z,7.83
2019-06-18T08:49:22.801Z,11.07
2019-06-18T08:51:53.397Z,7.43
2019-06-18T08:54:26.711Z,7.50
2019-06-18T08:56:56.910Z,6.77
2019-06-18T08:59:27.041Z,7.20
2019-06-18T09:01:57.181Z,6.57
2019-06-18T09:04:27.013Z,7.10
2019-06-18T09:06:59.464Z,6.00
2019-06-18T09:09:32.141Z,8.23
2019-06-18T09:12:03.059Z,6.87
2019-06-18T09:14:33.654Z,7.63
2019-06-18T09:17:03.767Z,6.23
2019-06-18T09:19:33.699Z,5.70
2019-06-18T09:22:03.744Z,5.77
2019-06-18T09:24:33.828Z,6.23
2019-06-18T09:27:03.764Z,6.00
2019-06-18T09:29:34.412Z,9.77
2019-06-18T09:32:04.395Z,5.80
2019-06-18T09:34:34.605Z,6.00
2019-06-18T09:37:04.537Z,6.27
2019-06-18T09:39:34.872Z,5.47
2019-06-18T09:42:05.120Z,7.60
2019-06-18T09:44:36.050Z,5.87
2019-06-18T09:47:12.698Z,5.20
2019-06-18T09:49:53.235Z,5.20
2019-06-18T09:52:23.385Z,5.37
2019-06-18T09:54:56.333Z,5.50
2019-06-18T09:57:25.988Z,5.67
2019-06-18T09:59:55.680Z,6.07
2019-06-18T10:02:26.581Z,6.33
2019-06-18T10:04:56.312Z,4.97
2019-06-18T10:07:26.441Z,4.77
2019-06-18T10:09:56.067Z,5.20
2019-06-18T10:12:25.841Z,5.40
2019-06-18T10:14:55.843Z,5.67
2019-06-18T10:17:26.406Z,5.10
2019-06-18T10:19:55.971Z,5.10
2019-06-18T10:22:25.626Z,5.60
2019-06-18T10:24:55.048Z,5.93
2019-06-18T10:27:24.805Z,5.30
2019-06-18T10:30:02.476Z,6.40
2019-06-18T10:32:27.333Z,5.63
2019-06-18T10:34:57.565Z,4.93
2019-06-18T10:37:28.465Z,5.83
2019-06-18T10:39:59.032Z,5.77
2019-06-18T10:42:28.797Z,6.83
2019-06-18T10:44:58.578Z,5.97
2019-06-18T10:47:29.087Z,5.30
2019-06-18T10:49:59.801Z,4.23
2019-06-18T10:52:32.706Z,5.10
2019-06-18T10:55:03.815Z,5.20
2019-06-18T10:57:36.095Z,4.23
2019-06-18T11:00:06.252Z,5.00
2019-06-18T11:02:36.252Z,5.10
2019-06-18T11:05:08.800Z,4.77
2019-06-18T11:07:38.848Z,4.47
2019-06-18T11:10:09.737Z,11.97
2019-06-18T11:12:43.871Z,5.17
2019-06-18T11:15:14.098Z,4.30
2019-06-18T11:17:44.295Z,4.73
2019-06-18T11:20:15.646Z,4.00
2019-06-18T11:22:53.986Z,5.33
2019-06-18T11:25:23.616Z,4.10
2019-06-18T11:27:53.775Z,4.27
2019-06-18T11:30:23.742Z,4.33
2019-06-18T11:32:53.776Z,6.30
2019-06-18T11:35:24.003Z,4.03
2019-06-18T11:37:54.222Z,4.10
2019-06-18T11:40:25.589Z,4.73
2019-06-18T11:42:57.074Z,5.47
2019-06-18T11:45:27.013Z,4.80
2019-06-18T11:47:56.918Z,4.37
2019-06-18T11:50:27.040Z,4.13
2019-06-18T11:52:57.298Z,4.60
2019-06-18T11:55:27.230Z,4.57
2019-06-18T11:57:57.845Z,4.87
2019-06-18T12:00:29.016Z,4.90
2019-06-18T12:02:59.199Z,4.50
2019-06-18T12:05:32.953Z,9.30
2019-06-18T12:08:03.636Z,7.70
2019-06-18T12:10:33.675Z,3.90
2019-06-18T12:13:03.593Z,4.13
2019-06-18T12:15:34.128Z,3.43
2019-06-18T12:18:08.514Z,6.20
2019-06-18T12:20:36.530Z,3.63
2019-06-18T12:23:06.692Z,3.53
2019-06-18T12:25:37.315Z,3.77
2019-06-18T12:28:07.354Z,4.00
2019-06-18T12:30:37.724Z,3.90
2019-06-18T12:33:13.121Z,3.40
2019-06-18T12:35:43.170Z,4.20
2019-06-18T12:38:14.100Z,3.87
2019-06-18T12:40:44.453Z,3.50
2019-06-18T12:43:14.800Z,3.70
2019-06-18T12:45:44.917Z,4.27
2019-06-18T12:48:15.042Z,4.20
2019-06-18T12:50:45.284Z,3.93
2019-06-18T12:53:15.383Z,4.60
2019-06-18T12:55:45.916Z,6.07
2019-06-18T12:58:18.857Z,4.60
2019-06-18T13:00:48.974Z,4.57
2019-06-18T13:03:19.300Z,3.70
2019-06-18T13:05:49.528Z,4.03
2019-06-18T13:08:19.435Z,3.97
2019-06-18T13:10:49.425Z,3.70
2019-06-18T13:13:23.363Z,3.43
2019-06-18T13:15:52.778Z,3.60
2019-06-18T13:18:22.977Z,4.57
2019-06-18T13:20:55.597Z,3.90
2019-06-18T13:23:29.671Z,3.77
2019-06-18T13:25:57.279Z,3.97
2019-06-18T13:28:27.396Z,3.73
2019-06-18T13:30:57.463Z,3.50
2019-06-18T13:33:28.302Z,3.30
2019-06-18T13:35:58.295Z,3.70
2019-06-18T13:38:28.179Z,3.60
2019-06-18T13:40:58.601Z,3.80
2019-06-18T13:43:32.991Z,3.40
2019-06-18T13:46:03.263Z,3.67
2019-06-18T13:48:33.628Z,3.60
2019-06-18T13:51:05.312Z,3.40
2019-06-18T13:53:45.048Z,3.70
2019-06-18T13:56:09.212Z,4.60
2019-06-18T13:58:39.812Z,3.77
2019-06-18T14:01:12.670Z,4.20
2019-06-18T14:03:43.433Z,3.40
2019-06-18T14:06:13.760Z,4.10
2019-06-18T14:08:45.255Z,3.70
2019-06-18T14:11:15.556Z,4.07
2019-06-18T14:13:45.854Z,3.57
2019-06-18T14:16:16.402Z,3.83
2019-06-18T14:18:46.570Z,3.43
2019-06-18T14:21:18.401Z,3.70
2019-06-18T14:24:00.652Z,3.63
2019-06-18T14:26:22.542Z,3.60
2019-06-18T14:28:55.956Z,3.10
2019-06-18T14:31:26.248Z,3.47
2019-06-18T14:33:56.225Z,3.53
2019-06-18T14:36:26.993Z,3.10
2019-06-18T14:38:57.313Z,4.07
2019-06-18T14:41:28.588Z,3.20
2019-06-18T14:43:58.923Z,2.90
2019-06-18T14:46:29.041Z,3.73
2019-06-18T14:49:03.517Z,3.50
2019-06-18T14:51:35.177Z,3.00
2019-06-18T14:54:21.846Z,3.20
2019-06-18T14:56:38.696Z,3.30
2019-06-18T14:59:13.169Z,2.73
2019-06-18T15:01:43.284Z,3.63
2019-06-18T15:04:14.041Z,3.60
2019-06-18T15:06:44.811Z,3.00
2019-06-18T15:09:15.058Z,4.20
2019-06-18T15:11:45.260Z,3.50
2019-06-18T15:14:16.240Z,3.80
2019-06-18T15:16:48.772Z,3.20
2019-06-18T15:19:18.884Z,3.67
2019-06-18T15:21:53.074Z,2.77
2019-06-18T15:24:39.211Z,2.83
2019-06-18T15:26:56.109Z,4.97
2019-06-18T15:29:26.293Z,2.80
2019-06-18T15:31:57.546Z,10.13
2019-06-18T15:34:28.015Z,3.20
2019-06-18T15:36:58.335Z,3.00
2019-06-18T15:39:33.849Z,2.97
2019-06-18T15:42:04.719Z,3.00
2019-06-18T15:44:35.113Z,5.37
2019-06-18T15:47:05.681Z,3.37
2019-06-18T15:49:36.422Z,4.57
2019-06-18T15:52:06.677Z,4.53
2019-06-18T15:54:52.223Z,2.73
2019-06-18T15:57:12.473Z,2.90
2019-06-18T15:59:42.795Z,2.70
2019-06-18T16:02:13.303Z,2.77
2019-06-18T16:04:44.193Z,3.00
2019-06-18T16:07:14.889Z,3.17
2019-06-18T16:09:45.843Z,3.57
2019-06-18T16:12:16.147Z,3.13
2019-06-18T16:14:46.740Z,3.17
2019-06-18T16:17:17.574Z,3.83
2019-06-18T16:19:47.852Z,3.40
2019-06-18T16:22:20.328Z,3.17
2019-06-18T16:24:53.102Z,2.80
2019-06-18T16:27:22.565Z,3.67
2019-06-18T16:29:53.518Z,3.20
2019-06-18T16:32:24.107Z,4.43
2019-06-18T16:34:54.376Z,2.93
2019-06-18T16:37:25.510Z,3.47
2019-06-18T16:39:56.268Z,3.33
2019-06-18T16:42:26.882Z,3.43
2019-06-18T16:44:57.557Z,3.50
2019-06-18T16:47:27.984Z,3.50
2019-06-18T16:50:02.764Z,3.40
2019-06-18T16:52:38.331Z,3.33
2019-06-18T16:55:29.568Z,5.77
2019-06-18T16:57:48.410Z,4.30
2019-06-18T17:00:20.080Z,4.50
2019-06-18T17:03:02.512Z,2.80
2019-06-18T17:05:33.879Z,4.20
2019-06-18T17:08:06.527Z,4.50
2019-06-18T17:10:38.142Z,4.50
2019-06-18T17:13:12.777Z,4.73
2019-06-18T17:15:43.384Z,5.00
2019-06-18T17:18:22.695Z,5.70
2019-06-18T17:20:54.177Z,5.20
2019-06-18T17:23:25.162Z,4.80
2019-06-18T17:25:59.474Z,5.53
2019-06-18T17:28:33.191Z,5.60
2019-06-18T17:31:05.633Z,5.50
2019-06-18T17:33:36.320Z,6.03
2019-06-18T17:36:07.338Z,5.37
2019-06-18T17:38:41.252Z,5.03
2019-06-18T17:41:12.347Z,5.43
2019-06-18T17:43:52.339Z,4.80
2019-06-18T17:46:15.432Z,5.30
2019-06-18T17:48:46.088Z,4.50
2019-06-18T17:51:16.454Z,5.03
2019-06-18T17:53:48.159Z,5.13
2019-06-18T17:56:18.825Z,4.50
2019-06-18T17:58:49.635Z,5.97
2019-06-18T18:01:22.511Z,4.70
2019-06-18T18:03:53.332Z,5.10
2019-06-18T18:06:25.797Z,5.47
2019-06-18T18:08:58.818Z,4.70
2019-06-18T18:11:29.525Z,8.33
2019-06-18T18:13:59.778Z,4.63
2019-06-18T18:16:30.167Z,5.00
2019-06-18T18:19:03.126Z,5.13
2019-06-18T18:21:34.124Z,4.80
2019-06-18T18:24:04.786Z,7.03
2019-06-18T18:26:35.255Z,4.87
2019-06-18T18:29:07.301Z,5.57
2019-06-18T18:31:37.993Z,9.03
2019-06-18T18:34:08.539Z,6.60
2019-06-18T18:36:40.114Z,5.13
2019-06-18T18:39:10.884Z,5.43
2019-06-18T18:41:53.430Z,4.93
2019-06-18T18:44:15.467Z,4.30
2019-06-18T18:46:45.755Z,4.70
2019-06-18T18:49:15.972Z,4.37
2019-06-18T18:51:46.357Z,4.47
2019-06-18T18:54:32.540Z,5.47
2019-06-18T18:57:04.414Z,4.27
2019-06-18T18:59:42.487Z,4.40
2019-06-18T19:02:12.705Z,4.43
2019-06-18T19:04:43.546Z,5.10
2019-06-18T19:07:13.976Z,5.17
2019-06-18T19:09:44.702Z,10.90
2019-06-18T19:12:15.365Z,4.60
2019-06-18T19:14:46.451Z,4.67
2019-06-18T19:17:16.699Z,4.87
2019-06-18T19:19:46.884Z,5.00
2019-06-18T19:22:18.116Z,5.17
2019-06-18T19:24:48.521Z,4.70
2019-06-18T19:27:19.025Z,4.87
2019-06-18T19:29:50.191Z,4.73
2019-06-18T19:32:24.517Z,4.87
2019-06-18T19:34:56.416Z,4.90
2019-06-18T19:37:26.625Z,5.00
2019-06-18T19:40:00.380Z,5.60
2019-06-18T19:42:32.703Z,6.03
2019-06-18T19:45:02.793Z,5.47
2019-06-18T19:47:33.203Z,6.57
2019-06-18T19:50:03.274Z,6.50
2019-06-18T19:52:33.228Z,5.60
2019-06-18T19:55:03.361Z,5.10
2019-06-18T19:57:34.077Z,5.00
2019-06-18T20:00:04.183Z,5.30
2019-06-18T20:02:33.835Z,5.60
2019-06-18T20:05:04.909Z,4.90
2019-06-18T20:07:46.145Z,5.30
2019-06-18T20:10:16.030Z,6.23
2019-06-18T20:12:47.492Z,7.20
2019-06-18T20:15:17.772Z,6.40
2019-06-18T20:17:47.676Z,6.50
2019-06-18T20:20:43.055Z,6.30
2019-06-18T20:23:13.681Z,6.00
2019-06-18T20:25:43.818Z,6.80
2019-06-18T20:28:19.567Z,6.07
2019-06-18T20:30:53.341Z,5.90
2019-06-18T20:33:23.825Z,6.47
2019-06-18T20:35:53.904Z,6.47
2019-06-18T20:38:23.903Z,5.83
2019-06-18T20:40:54.274Z,6.43
2019-06-18T20:43:24.709Z,6.60
2019-06-18T20:45:55.912Z,6.03
2019-06-18T20:48:26.219Z,6.13
2019-06-18T20:50:56.480Z,5.20
2019-06-18T20:53:26.767Z,5.20
2019-06-18T20:55:57.257Z,5.40
2019-06-18T20:58:27.925Z,5.27
2019-06-18T21:01:02.485Z,6.00
2019-06-18T21:03:33.029Z,5.80
2019-06-18T21:06:04.246Z,5.03
2019-06-18T21:08:34.676Z,6.13
2019-06-18T21:11:04.854Z,5.70
2019-06-18T21:13:35.264Z,6.20
2019-06-18T21:16:07.182Z,6.67
2019-06-18T21:18:39.188Z,6.40
2019-06-18T21:21:09.736Z,6.27
2019-06-18T21:23:40.555Z,6.20
2019-06-18T21:26:12.376Z,6.20
2019-06-18T21:28:45.622Z,7.20
2019-06-18T21:31:15.794Z,5.70
2019-06-18T21:33:46.029Z,6.47
2019-06-18T21:36:16.522Z,5.60
2019-06-18T21:38:46.712Z,5.93
2019-06-18T21:41:16.759Z,5.53
2019-06-18T21:43:47.156Z,6.07
2019-06-18T21:46:17.427Z,6.70
2019-06-18T21:48:47.540Z,6.73
2019-06-18T21:51:18.082Z,6.13
2019-06-18T21:53:48.140Z,6.10
2019-06-18T21:56:18.261Z,6.30
2019-06-18T21:58:49.905Z,5.73
2019-06-18T22:01:19.863Z,5.90
2019-06-18T22:03:49.957Z,6.30
2019-06-18T22:06:22.245Z,6.57
2019-06-18T22:08:52.824Z,5.80
2019-06-18T22:11:22.943Z,5.47
2019-06-18T22:13:55.240Z,5.73
2019-06-18T22:16:55.645Z,5.33
2019-06-18T22:19:26.380Z,5.70
2019-06-18T22:21:57.213Z,5.77
2019-06-18T22:24:27.665Z,5.50
2019-06-18T22:26:57.845Z,4.97
2019-06-18T22:29:28.143Z,5.87
2019-06-18T22:31:58.919Z,5.90
2019-06-18T22:34:29.641Z,5.90
2019-06-18T22:37:18.080Z,4.87
2019-06-18T22:39:48.761Z,5.77
2019-06-18T22:42:19.052Z,5.60
2019-06-18T22:44:52.647Z,6.17
2019-06-18T22:47:22.984Z,5.80
2019-06-18T22:49:53.561Z,5.83
2019-06-18T22:52:24.141Z,5.80
2019-06-18T22:54:54.567Z,5.83
2019-06-18T22:57:25.609Z,5.77
2019-06-18T22:59:55.779Z,5.40
2019-06-18T23:02:26.306Z,6.03
2019-06-18T23:04:56.668Z,6.10
2019-06-18T23:07:27.016Z,5.90
2019-06-18T23:09:57.975Z,5.10
2019-06-18T23:12:29.680Z,5.10
2019-06-18T23:14:59.972Z,6.00
2019-06-18T23:17:32.803Z,6.60
2019-06-18T23:20:03.075Z,6.50
2019-06-18T23:22:34.626Z,6.50
2019-06-18T23:25:04.992Z,6.60
2019-06-18T23:27:37.120Z,6.50
2019-06-18T23:30:07.465Z,6.53
2019-06-18T23:32:38.140Z,6.47
2019-06-18T23:35:10.030Z,6.43
2019-06-18T23:37:40.917Z,6.80
2019-06-18T23:40:12.524Z,7.03
2019-06-18T23:42:44.564Z,5.93
2019-06-18T23:45:14.878Z,5.70
2019-06-18T23:47:45.366Z,6.27
2019-06-18T23:50:17.017Z,5.70
2019-06-18T23:52:49.212Z,5.80
2019-06-18T23:55:22.558Z,6.03
2019-06-18T23:57:55.157Z,6.60
